Time;durP1;ratioP1;P1;durP2;ratioP2;P2;SDS_P1;SDS_P2;PMS_P1;PMS_P2;Temp;Humidity;BMP_temperature;BMP_pressure;BME280_temperature;BME280_humidity;BME280_pressure;Samples;Min_cycle;Max_cycle;Signal;HPM_P1;HPM_P2
2023/08/26 00:00:36;;;;;;;;;;;25.50;76.40;;;;;;5129890;28;19908;-56
2023/08/26 00:03:01;;;;;;;;;;;25.50;76.40;;;;;;5131128;28;19915;-55
2023/08/26 00:05:27;;;;;;;;;;;25.50;76.40;;;;;;5131247;27;20378;-55
2023/08/26 00:07:52;;;;;;;;;;;25.50;76.40;;;;;;5131212;28;19908;-55
2023/08/26 00:10:18;;;;;;;;;;;25.50;76.40;;;;;;5127215;28;20052;-56
2023/08/26 00:12:43;;;;;;;;;;;25.50;76.40;;;;;;5131032;28;19912;-56
2023/08/26 00:15:09;;;;;;;;;;;25.50;76.30;;;;;;5111418;28;19908;-56
2023/08/26 00:17:34;;;;;;;;;;;25.50;76.40;;;;;;5110420;28;20400;-55
2023/08/26 00:20:00;;;;;;;;;;;25.50;76.40;;;;;;5109046;28;20354;-55
2023/08/26 00:22:26;;;;;;;;;;;25.50;76.40;;;;;;5107147;28;19934;-55
2023/08/26 00:24:51;;;;;;;;;;;25.50;76.50;;;;;;5104881;28;20003;-56
2023/08/26 00:27:17;;;;;;;;;;;25.40;76.50;;;;;;5108919;28;20372;-56
2023/08/26 00:29:42;;;;;;;;;;;25.50;76.50;;;;;;5110165;28;20030;-56
2023/08/26 00:32:08;;;;;;;;;;;25.40;76.50;;;;;;5110116;28;20026;-56
2023/08/26 00:34:33;;;;;;;;;;;25.40;76.50;;;;;;5108720;28;20034;-56
2023/08/26 00:36:59;;;;;;;;;;;25.40;76.50;;;;;;5110029;28;19951;-55
2023/08/26 00:39:24;;;;;;;;;;;25.40;76.50;;;;;;5110093;28;20002;-56
2023/08/26 00:41:50;;;;;;;;;;;25.40;76.50;;;;;;5094384;28;19916;-56
2023/08/26 00:44:15;;;;;;;;;;;25.40;76.50;;;;;;5089604;28;19923;-56
2023/08/26 00:46:41;;;;;;;;;;;25.40;76.50;;;;;;5089539;28;19908;-56
2023/08/26 00:49:06;;;;;;;;;;;25.40;76.50;;;;;;5089140;28;20383;-55
2023/08/26 00:51:32;;;;;;;;;;;25.40;76.50;;;;;;5103950;28;19916;-56
2023/08/26 00:53:57;;;;;;;;;;;25.40;76.60;;;;;;5108427;28;20294;-56
2023/08/26 00:56:23;;;;;;;;;;;25.40;76.50;;;;;;5099025;28;20335;-55
2023/08/26 00:58:48;;;;;;;;;;;25.40;76.50;;;;;;5109645;28;19953;-56
2023/08/26 01:01:14;;;;;;;;;;;25.40;76.40;;;;;;5100332;28;19912;-56
2023/08/26 01:03:39;;;;;;;;;;;25.40;76.40;;;;;;5096007;28;19909;-56
2023/08/26 01:06:05;;;;;;;;;;;25.40;76.40;;;;;;5095961;28;19961;-55
2023/08/26 01:08:30;;;;;;;;;;;25.40;76.40;;;;;;5095893;28;20295;-56
2023/08/26 01:10:55;;;;;;;;;;;25.40;76.40;;;;;;5093993;28;20081;-56
2023/08/26 01:13:24;;;;;;;;;;;25.40;76.50;;;;;;5095840;28;19908;-56
2023/08/26 01:15:49;;;;;;;;;;;25.40;76.40;;;;;;5095735;28;19954;-56
2023/08/26 01:18:15;;;;;;;;;;;25.40;76.50;;;;;;5095730;28;19966;-56
2023/08/26 01:20:43;;;;;;;;;;;25.40;76.50;;;;;;5094528;28;19908;-56
2023/08/26 01:23:28;;;;;;;;;;;25.40;76.50;;;;;;5094289;28;20391;-56
2023/08/26 01:25:53;;;;;;;;;;;25.40;76.50;;;;;;5073406;28;19919;-55
2023/08/26 01:28:19;;;;;;;;;;;25.40;76.50;;;;;;5094183;28;20257;-56
2023/08/26 01:30:44;;;;;;;;;;;25.40;76.60;;;;;;5095418;28;19973;-56
2023/08/26 01:33:20;;;;;;;;;;;25.40;76.60;;;;;;5093970;28;19912;-55
2023/08/26 01:35:46;;;;;;;;;;;25.40;76.60;;;;;;5095474;28;19923;-56
2023/08/26 01:38:12;;;;;;;;;;;25.30;76.70;;;;;;5095392;28;20277;-56
2023/08/26 01:40:37;;;;;;;;;;;25.30;77.50;;;;;;5095523;28;19983;-56
2023/08/26 01:43:03;;;;;;;;;;;25.30;76.70;;;;;;5092798;28;20275;-56
2023/08/26 01:45:28;;;;;;;;;;;25.40;76.70;;;;;;5095272;28;19915;-55
2023/08/26 01:47:54;;;;;;;;;;;25.30;76.70;;;;;;5095109;28;20321;-55
2023/08/26 01:50:19;;;;;;;;;;;25.40;76.80;;;;;;5093659;28;19920;-56
2023/08/26 01:52:45;;;;;;;;;;;25.30;76.70;;;;;;5093650;28;19941;-56
2023/08/26 01:55:10;;;;;;;;;;;25.30;76.70;;;;;;5086042;28;19908;-55
2023/08/26 01:57:35;;;;;;;;;;;25.30;76.70;;;;;;5083972;28;19935;-55
2023/08/26 02:00:01;;;;;;;;;;;25.30;76.70;;;;;;5094857;28;19908;-56
2023/08/26 02:02:26;;;;;;;;;;;25.30;76.80;;;;;;5094901;28;19914;-55
2023/08/26 02:04:52;;;;;;;;;;;25.30;76.70;;;;;;5077074;28;20327;-56
2023/08/26 02:07:18;;;;;;;;;;;25.30;76.80;;;;;;5074520;28;19995;-56
2023/08/26 02:09:44;;;;;;;;;;;25.30;76.80;;;;;;5074393;28;19920;-56
2023/08/26 02:12:09;;;;;;;;;;;25.30;76.80;;;;;;5076002;28;19912;-56
2023/08/26 02:14:35;;;;;;;;;;;25.30;76.80;;;;;;5094322;28;19962;-56
2023/08/26 02:17:00;;;;;;;;;;;25.30;76.80;;;;;;5094439;28;19921;-55
2023/08/26 02:19:26;;;;;;;;;;;25.30;76.80;;;;;;5094793;28;20003;-56
2023/08/26 02:21:52;;;;;;;;;;;25.30;76.80;;;;;;5092519;28;19909;-56
2023/08/26 02:24:17;;;;;;;;;;;25.30;76.90;;;;;;5094269;28;19908;-56
2023/08/26 02:26:42;;;;;;;;;;;25.30;76.90;;;;;;5074176;28;19908;-56
2023/08/26 02:29:08;;;;;;;;;;;25.30;76.90;;;;;;5091572;28;20003;-56
2023/08/26 02:31:34;;;;;;;;;;;25.30;76.90;;;;;;5094330;28;19908;-56
2023/08/26 02:33:59;;;;;;;;;;;25.30;76.90;;;;;;5092812;28;19912;-56
2023/08/26 02:36:25;;;;;;;;;;;25.30;77.00;;;;;;5094286;28;20445;-56
2023/08/26 02:38:50;;;;;;;;;;;25.30;77.10;;;;;;5094171;28;20283;-56
2023/08/26 02:41:15;;;;;;;;;;;25.20;77.10;;;;;;5094157;28;20006;-56
2023/08/26 02:43:41;;;;;;;;;;;25.20;77.10;;;;;;5090871;28;20005;-55
2023/08/26 02:46:06;;;;;;;;;;;25.30;77.20;;;;;;5094248;28;19915;-55
2023/08/26 02:48:32;;;;;;;;;;;25.20;77.10;;;;;;5093753;28;19999;-56
2023/08/26 02:50:58;;;;;;;;;;;25.20;77.10;;;;;;5093960;28;19911;-55
2023/08/26 02:53:24;;;;;;;;;;;25.20;77.10;;;;;;5091480;28;19912;-56
2023/08/26 02:55:49;;;;;;;;;;;25.20;77.10;;;;;;5080623;28;20049;-56
2023/08/26 02:58:14;;;;;;;;;;;25.20;77.10;;;;;;5079516;28;20000;-56
2023/08/26 03:00:40;;;;;;;;;;;25.20;77.20;;;;;;5092425;28;19908;-56
2023/08/26 03:03:06;;;;;;;;;;;25.20;77.20;;;;;;5092387;28;19908;-56
2023/08/26 03:05:31;;;;;;;;;;;25.20;77.30;;;;;;5079652;28;20380;-56
2023/08/26 03:07:57;;;;;;;;;;;25.20;77.30;;;;;;5073507;28;20431;-55
2023/08/26 03:10:22;;;;;;;;;;;25.20;77.30;;;;;;5073376;28;19934;-55
2023/08/26 03:12:48;;;;;;;;;;;25.20;77.40;;;;;;5073720;28;19953;-56
2023/08/26 03:15:13;;;;;;;;;;;25.10;77.30;;;;;;5093472;28;19931;-55
2023/08/26 03:17:39;;;;;;;;;;;25.10;77.40;;;;;;5092341;28;19915;-56
2023/08/26 03:20:05;;;;;;;;;;;25.20;77.40;;;;;;5093427;28;19908;-55
2023/08/26 03:22:30;;;;;;;;;;;25.20;77.50;;;;;;5093483;28;19908;-56
2023/08/26 03:24:56;;;;;;;;;;;25.20;77.40;;;;;;5086013;28;19912;-56
2023/08/26 03:27:21;;;;;;;;;;;25.10;77.50;;;;;;5073067;28;19908;-57
2023/08/26 03:29:47;;;;;;;;;;;25.10;77.50;;;;;;5088280;28;19959;-56
2023/08/26 03:32:12;;;;;;;;;;;25.10;77.50;;;;;;5093242;28;19908;-55
2023/08/26 03:34:37;;;;;;;;;;;25.10;77.60;;;;;;5093312;28;19973;-55
2023/08/26 03:37:03;;;;;;;;;;;25.10;77.60;;;;;;5073004;28;19916;-56
2023/08/26 03:39:29;;;;;;;;;;;25.10;77.60;;;;;;5073019;28;19962;-56
2023/08/26 03:41:54;;;;;;;;;;;25.10;77.60;;;;;;5073007;28;19951;-56
2023/08/26 03:44:20;;;;;;;;;;;25.10;77.50;;;;;;5081517;28;20370;-56
2023/08/26 03:46:45;;;;;;;;;;;25.10;77.50;;;;;;5090608;28;20007;-55
2023/08/26 03:49:11;;;;;;;;;;;25.10;77.50;;;;;;5093123;28;19920;-55
2023/08/26 03:51:36;;;;;;;;;;;25.10;77.50;;;;;;5093023;28;19908;-56
2023/08/26 03:54:02;;;;;;;;;;;25.10;77.60;;;;;;5083793;28;20057;-56
2023/08/26 03:56:28;;;;;;;;;;;25.10;77.60;;;;;;5072158;28;20369;-56
2023/08/26 03:58:56;;;;;;;;;;;25.10;77.60;;;;;;5076415;28;19962;-56
2023/08/26 04:01:21;;;;;;;;;;;25.10;77.70;;;;;;5090451;28;20382;-56
2023/08/26 04:03:49;;;;;;;;;;;25.00;77.60;;;;;;5093174;28;19908;-56
2023/08/26 04:06:15;;;;;;;;;;;25.00;77.60;;;;;;5093027;28;19912;-56
2023/08/26 04:08:41;;;;;;;;;;;25.00;77.60;;;;;;5092951;28;19908;-56
2023/08/26 04:11:07;;;;;;;;;;;25.10;77.60;;;;;;5090208;28;19921;-56
2023/08/26 04:13:33;;;;;;;;;;;25.10;77.60;;;;;;5091092;28;19908;-56
2023/08/26 04:15:58;;;;;;;;;;;25.00;77.50;;;;;;5092591;28;19908;-56
2023/08/26 04:18:24;;;;;;;;;;;25.10;77.50;;;;;;5092784;28;19908;-55
2023/08/26 04:20:49;;;;;;;;;;;25.00;77.40;;;;;;5092736;28;19908;-55
2023/08/26 04:23:15;;;;;;;;;;;25.10;77.50;;;;;;5089852;28;20331;-55
2023/08/26 04:25:40;;;;;;;;;;;25.00;77.40;;;;;;5086601;28;19919;-56
2023/08/26 04:28:06;;;;;;;;;;;25.00;77.40;;;;;;5092673;28;19958;-56
2023/08/26 04:30:31;;;;;;;;;;;25.00;77.50;;;;;;5075250;28;19969;-56
2023/08/26 04:32:57;;;;;;;;;;;24.90;77.30;;;;;;5072570;28;20284;-56
2023/08/26 04:35:23;;;;;;;;;;;24.90;77.40;;;;;;5072494;28;19909;-56
2023/08/26 04:37:48;;;;;;;;;;;24.90;77.50;;;;;;5076512;28;19909;-55
2023/08/26 04:40:14;;;;;;;;;;;24.90;77.40;;;;;;5079951;28;19920;-56
2023/08/26 04:42:39;;;;;;;;;;;24.90;77.40;;;;;;5095478;28;20333;-55
2023/08/26 04:45:05;;;;;;;;;;;24.90;77.30;;;;;;5092790;28;19915;-56
2023/08/26 04:47:31;;;;;;;;;;;24.90;77.40;;;;;;5093146;28;19928;-56
2023/08/26 04:49:56;;;;;;;;;;;24.90;77.30;;;;;;5093971;28;19919;-55
2023/08/26 04:52:22;;;;;;;;;;;24.90;77.30;;;;;;5096217;28;19999;-56
2023/08/26 04:54:47;;;;;;;;;;;24.90;77.30;;;;;;5091693;28;20364;-56
2023/08/26 04:57:12;;;;;;;;;;;24.90;77.40;;;;;;5076089;28;20357;-55
2023/08/26 04:59:38;;;;;;;;;;;24.90;77.50;;;;;;5094320;28;20348;-56
2023/08/26 05:02:07;;;;;;;;;;;24.90;77.50;;;;;;5096248;28;20565;-55
2023/08/26 05:04:33;;;;;;;;;;;24.90;77.40;;;;;;5096061;28;20310;-56
2023/08/26 05:06:58;;;;;;;;;;;24.90;77.50;;;;;;5095962;28;19998;-56
2023/08/26 05:09:24;;;;;;;;;;;24.90;77.40;;;;;;5095793;28;19912;-56
2023/08/26 05:11:49;;;;;;;;;;;24.90;77.40;;;;;;5094367;28;19912;-56
2023/08/26 05:14:14;;;;;;;;;;;24.80;77.40;;;;;;5093661;28;19916;-56
2023/08/26 05:16:40;;;;;;;;;;;24.80;77.40;;;;;;5095833;28;19915;-56
2023/08/26 05:19:05;;;;;;;;;;;24.80;77.40;;;;;;5095702;28;20434;-56
2023/08/26 05:21:31;;;;;;;;;;;24.80;77.40;;;;;;5094346;28;20288;-55
2023/08/26 05:23:57;;;;;;;;;;;24.80;77.30;;;;;;5095453;28;19908;-56
2023/08/26 05:26:24;;;;;;;;;;;24.80;77.20;;;;;;5078199;28;19912;-56
2023/08/26 05:28:50;;;;;;;;;;;24.80;77.20;;;;;;5088242;28;19912;-56
2023/08/26 05:31:15;;;;;;;;;;;24.80;77.20;;;;;;5095552;28;20296;-56
2023/08/26 05:33:40;;;;;;;;;;;24.80;77.10;;;;;;5095471;28;19908;-56
2023/08/26 05:36:06;;;;;;;;;;;24.80;77.00;;;;;;5092905;28;19912;-56
2023/08/26 05:38:31;;;;;;;;;;;24.80;76.90;;;;;;5094402;28;19916;-56
2023/08/26 05:40:57;;;;;;;;;;;24.80;76.80;;;;;;5095488;28;19916;-56
2023/08/26 05:43:22;;;;;;;;;;;24.80;76.80;;;;;;5092657;28;20364;-56
2023/08/26 05:45:48;;;;;;;;;;;24.80;76.60;;;;;;5082950;28;19912;-55
2023/08/26 05:48:13;;;;;;;;;;;24.80;76.60;;;;;;5092264;28;19912;-56
2023/08/26 05:50:39;;;;;;;;;;;24.80;76.60;;;;;;5093514;28;19920;-56
2023/08/26 05:53:04;;;;;;;;;;;24.80;76.60;;;;;;5095006;28;20279;-56
2023/08/26 05:55:30;;;;;;;;;;;24.80;76.50;;;;;;5090390;28;19912;-56
2023/08/26 05:57:56;;;;;;;;;;;24.80;76.40;;;;;;5092748;28;19927;-56
2023/08/26 06:00:22;;;;;;;;;;;24.80;76.50;;;;;;5095016;28;20372;-56
2023/08/26 06:02:48;;;;;;;;;;;24.70;76.50;;;;;;5095175;28;19919;-55
2023/08/26 06:05:13;;;;;;;;;;;24.70;76.50;;;;;;5093551;28;19912;-55
2023/08/26 06:07:39;;;;;;;;;;;24.70;76.40;;;;;;5094773;28;20429;-55
2023/08/26 06:10:05;;;;;;;;;;;24.70;76.40;;;;;;5094674;28;19939;-56
2023/08/26 06:12:30;;;;;;;;;;;24.70;76.30;;;;;;5093679;28;20335;-55
2023/08/26 06:14:55;;;;;;;;;;;24.80;76.30;;;;;;5070646;28;20405;-56
2023/08/26 06:17:21;;;;;;;;;;;24.70;76.20;;;;;;5054707;28;19958;-56
2023/08/26 06:19:46;;;;;;;;;;;24.70;76.10;;;;;;5054618;28;20119;-55
2023/08/26 06:22:12;;;;;;;;;;;24.80;76.20;;;;;;5053077;28;19909;-57
2023/08/26 06:24:37;;;;;;;;;;;24.70;76.00;;;;;;5078933;28;19920;-55
2023/08/26 06:27:03;;;;;;;;;;;24.70;76.00;;;;;;5081770;28;19912;-56
2023/08/26 06:29:28;;;;;;;;;;;24.70;75.90;;;;;;5092048;28;19915;-56
2023/08/26 06:31:54;;;;;;;;;;;24.70;76.00;;;;;;5094241;28;20348;-56
2023/08/26 06:34:19;;;;;;;;;;;24.70;75.80;;;;;;5094368;28;20347;-56
2023/08/26 06:36:45;;;;;;;;;;;24.70;75.80;;;;;;5092883;28;19999;-55
2023/08/26 06:39:12;;;;;;;;;;;24.70;75.60;;;;;;5094184;28;19927;-55
2023/08/26 06:41:37;;;;;;;;;;;24.70;75.60;;;;;;5094215;28;19909;-56
2023/08/26 06:44:03;;;;;;;;;;;24.70;75.50;;;;;;5085260;28;19972;-56
2023/08/26 06:46:28;;;;;;;;;;;24.70;75.30;;;;;;5073742;28;20365;-56
2023/08/26 06:48:54;;;;;;;;;;;24.60;75.20;;;;;;5073361;28;19959;-56
2023/08/26 06:51:19;;;;;;;;;;;24.60;75.00;;;;;;5073683;28;19909;-56
2023/08/26 06:53:45;;;;;;;;;;;24.60;74.80;;;;;;5073124;28;19908;-55
2023/08/26 06:56:10;;;;;;;;;;;24.60;74.70;;;;;;5072900;28;20369;-57
2023/08/26 06:58:36;;;;;;;;;;;24.60;74.70;;;;;;5072050;28;20288;-54
2023/08/26 07:01:02;;;;;;;;;;;24.60;74.40;;;;;;5093703;28;20287;-56
2023/08/26 07:03:28;;;;;;;;;;;24.60;74.30;;;;;;5087527;28;19921;-56
2023/08/26 07:05:53;;;;;;;;;;;24.60;74.20;;;;;;5091590;28;20292;-55
2023/08/26 07:08:19;;;;;;;;;;;24.60;74.00;;;;;;5091145;28;20003;-56
2023/08/26 07:10:50;;;;;;;;;;;24.60;73.80;;;;;;5071933;28;19917;-55
2023/08/26 07:13:16;;;;;;;;;;;24.60;73.70;;;;;;5073617;28;20365;-56
2023/08/26 07:15:41;;;;;;;;;;;24.60;73.60;;;;;;5083928;28;19934;-56
2023/08/26 07:18:06;;;;;;;;;;;24.60;73.40;;;;;;5093546;28;19908;-55
2023/08/26 07:20:32;;;;;;;;;;;24.60;73.30;;;;;;5093518;28;19915;-55
2023/08/26 07:22:57;;;;;;;;;;;24.60;73.10;;;;;;5093457;28;19908;-56
2023/08/26 07:25:23;;;;;;;;;;;24.60;73.00;;;;;;5086101;28;19912;-56
2023/08/26 07:27:48;;;;;;;;;;;24.60;73.00;;;;;;5093256;28;20373;-55
2023/08/26 07:30:14;;;;;;;;;;;24.70;73.00;;;;;;5091224;28;19920;-55
2023/08/26 07:32:40;;;;;;;;;;;24.70;72.70;;;;;;5092074;28;19908;-55
2023/08/26 07:35:06;;;;;;;;;;;24.60;72.60;;;;;;5089671;28;20007;-56
2023/08/26 07:37:31;;;;;;;;;;;24.60;72.60;;;;;;5093219;28;19912;-56
2023/08/26 07:39:57;;;;;;;;;;;24.60;72.40;;;;;;5091876;28;19908;-56
2023/08/26 07:42:23;;;;;;;;;;;24.60;72.30;;;;;;5091924;28;19908;-56
2023/08/26 07:44:48;;;;;;;;;;;24.70;72.30;;;;;;5090431;28;19912;-55
2023/08/26 07:47:14;;;;;;;;;;;24.70;72.20;;;;;;5093180;28;20372;-56
2023/08/26 07:49:39;;;;;;;;;;;24.70;72.10;;;;;;5092849;28;19920;-56
2023/08/26 07:52:05;;;;;;;;;;;24.70;71.90;;;;;;5093038;28;19919;-56
2023/08/26 07:54:30;;;;;;;;;;;24.70;71.80;;;;;;5090180;28;19915;-56
2023/08/26 07:56:56;;;;;;;;;;;24.60;71.60;;;;;;5093075;28;19912;-56
2023/08/26 07:59:21;;;;;;;;;;;24.70;71.50;;;;;;5092964;28;19908;-56
2023/08/26 08:01:47;;;;;;;;;;;24.70;71.30;;;;;;5090897;28;20012;-55
2023/08/26 08:04:13;;;;;;;;;;;24.70;71.30;;;;;;5092966;28;19996;-56
2023/08/26 08:06:38;;;;;;;;;;;24.60;71.10;;;;;;5091471;28;19942;-56
2023/08/26 08:09:04;;;;;;;;;;;24.70;71.20;;;;;;5092812;28;19920;-56
2023/08/26 08:11:29;;;;;;;;;;;24.60;71.10;;;;;;5094897;28;19915;-56
2023/08/26 08:13:55;;;;;;;;;;;24.60;70.90;;;;;;5094135;28;20376;-56
2023/08/26 08:16:20;;;;;;;;;;;24.60;70.90;;;;;;5094708;28;19912;-55
2023/08/26 08:18:46;;;;;;;;;;;24.60;70.70;;;;;;5096890;28;20007;-55
2023/08/26 08:21:11;;;;;;;;;;;24.60;70.80;;;;;;5096741;28;19908;-56
2023/08/26 08:23:38;;;;;;;;;;;24.60;70.50;;;;;;5093959;28;19920;-56
2023/08/26 08:26:03;;;;;;;;;;;24.60;70.30;;;;;;5081638;28;19916;-56
2023/08/26 08:28:29;;;;;;;;;;;24.60;70.30;;;;;;5076427;28;19909;-56
2023/08/26 08:30:54;;;;;;;;;;;24.60;70.40;;;;;;5074523;28;19916;-56
2023/08/26 08:33:19;;;;;;;;;;;24.60;70.10;;;;;;5076398;28;19908;-56
2023/08/26 08:35:45;;;;;;;;;;;24.60;69.90;;;;;;5076265;28;20007;-55
2023/08/26 08:38:10;;;;;;;;;;;24.60;69.70;;;;;;5076520;28;19940;-56
2023/08/26 08:40:37;;;;;;;;;;;24.60;69.60;;;;;;5076608;28;19932;-55
2023/08/26 08:43:02;;;;;;;;;;;24.60;69.10;;;;;;5095576;28;19912;-55
2023/08/26 08:45:28;;;;;;;;;;;24.60;69.00;;;;;;5093040;28;20291;-56
2023/08/26 08:47:53;;;;;;;;;;;24.60;68.80;;;;;;5096322;28;19909;-56
2023/08/26 08:50:20;;;;;;;;;;;24.60;68.40;;;;;;5096114;28;20086;-55
2023/08/26 08:52:45;;;;;;;;;;;24.60;68.20;;;;;;5091874;28;19912;-56
2023/08/26 08:55:10;;;;;;;;;;;24.50;67.80;;;;;;5073923;28;19915;-55
2023/08/26 08:57:36;;;;;;;;;;;24.50;67.70;;;;;;5074866;28;19913;-55
2023/08/26 09:00:03;;;;;;;;;;;24.60;68.40;;;;;;5074586;28;19912;-56
2023/08/26 09:02:28;;;;;;;;;;;24.50;67.60;;;;;;5089918;28;20276;-56
2023/08/26 09:04:53;;;;;;;;;;;24.50;67.50;;;;;;5074462;28;19962;-56
2023/08/26 09:07:19;;;;;;;;;;;24.50;67.30;;;;;;5075807;28;19915;-56
2023/08/26 09:09:45;;;;;;;;;;;24.60;67.40;;;;;;5074678;28;19912;-56
2023/08/26 09:12:10;;;;;;;;;;;24.50;67.20;;;;;;5082301;28;19912;-56
2023/08/26 09:14:35;;;;;;;;;;;24.60;67.20;;;;;;5093592;28;20015;-56
2023/08/26 09:17:17;;;;;;;;;;;24.60;67.30;;;;;;5093490;28;19919;-56
2023/08/26 09:19:50;;;;;;;;;;;24.60;67.10;;;;;;5096033;28;20411;-56
2023/08/26 09:22:18;;;;;;;;;;;24.60;66.90;;;;;;5093108;28;19935;-56
2023/08/26 09:24:43;;;;;;;;;;;24.60;66.90;;;;;;5091721;28;20349;-56
2023/08/26 09:27:09;;;;;;;;;;;24.60;66.50;;;;;;5075291;28;19958;-56
2023/08/26 09:29:34;;;;;;;;;;;24.60;66.60;;;;;;5075240;28;19912;-55
2023/08/26 09:32:00;;;;;;;;;;;24.50;66.20;;;;;;5082143;28;20383;-56
2023/08/26 09:34:28;;;;;;;;;;;24.50;66.10;;;;;;5095477;28;20287;-56
2023/08/26 09:36:54;;;;;;;;;;;24.50;65.80;;;;;;5094259;28;19922;-56
2023/08/26 09:39:21;;;;;;;;;;;24.50;65.40;;;;;;5095371;28;19909;-56
2023/08/26 09:41:47;;;;;;;;;;;24.60;65.40;;;;;;5093865;28;19916;-55
2023/08/26 09:44:13;;;;;;;;;;;24.50;64.60;;;;;;5095430;28;20283;-56
2023/08/26 09:46:42;;;;;;;;;;;24.50;64.40;;;;;;5093226;28;20003;-56
2023/08/26 09:49:13;;;;;;;;;;;24.50;64.30;;;;;;5094846;28;20049;-55
2023/08/26 09:51:45;;;;;;;;;;;24.50;63.90;;;;;;5093521;28;20007;-56
2023/08/26 09:54:10;;;;;;;;;;;24.50;63.80;;;;;;5093344;28;19908;-55
2023/08/26 09:56:35;;;;;;;;;;;24.50;63.80;;;;;;5074353;28;20338;-57
2023/08/26 09:59:01;;;;;;;;;;;24.50;63.80;;;;;;5081754;28;19916;-55
2023/08/26 10:01:26;;;;;;;;;;;24.50;63.40;;;;;;5090693;28;19967;-56
2023/08/26 10:04:11;;;;;;;;;;;24.60;63.40;;;;;;5089533;28;19908;-56
2023/08/26 10:06:57;;;;;;;;;;;24.50;63.40;;;;;;5087318;28;19919;-56
2023/08/26 10:09:41;;;;;;;;;;;24.50;63.30;;;;;;5094299;28;20291;-56
2023/08/26 10:12:09;;;;;;;;;;;24.50;63.00;;;;;;5094691;28;19916;-56
2023/08/26 10:14:34;;;;;;;;;;;24.50;62.80;;;;;;5093144;28;19958;-55
2023/08/26 10:16:59;;;;;;;;;;;24.50;62.70;;;;;;5092208;28;19912;-56
2023/08/26 10:19:25;;;;;;;;;;;24.50;63.00;;;;;;5094584;28;19999;-56
2023/08/26 10:21:52;;;;;;;;;;;24.50;62.50;;;;;;5093381;28;20288;-56
2023/08/26 10:24:18;;;;;;;;;;;24.60;62.60;;;;;;5094079;28;19908;-54
2023/08/26 10:26:43;;;;;;;;;;;24.60;62.60;;;;;;5075799;28;19920;-56
2023/08/26 10:29:08;;;;;;;;;;;24.60;62.50;;;;;;5094337;28;19916;-55
2023/08/26 10:31:43;;;;;;;;;;;24.60;62.50;;;;;;5092153;28;19912;-56
2023/08/26 10:34:08;;;;;;;;;;;24.60;62.50;;;;;;5100218;28;19908;-56
2023/08/26 10:36:34;;;;;;;;;;;24.60;62.60;;;;;;5094288;28;19908;-56
2023/08/26 10:38:59;;;;;;;;;;;24.60;62.70;;;;;;5087802;28;20242;-56
2023/08/26 10:41:25;;;;;;;;;;;24.50;62.40;;;;;;5074009;28;20420;-55
2023/08/26 10:43:54;;;;;;;;;;;24.60;62.60;;;;;;5073950;28;19915;-56
2023/08/26 10:46:39;;;;;;;;;;;24.60;62.40;;;;;;5073093;28;20296;-56
2023/08/26 10:49:05;;;;;;;;;;;24.60;62.30;;;;;;5087162;28;19998;-57
2023/08/26 10:51:30;;;;;;;;;;;24.60;62.10;;;;;;5094178;28;20345;-55
2023/08/26 10:54:00;;;;;;;;;;;24.60;61.90;;;;;;5093864;28;19912;-55
2023/08/26 10:56:28;;;;;;;;;;;24.60;62.00;;;;;;5075021;28;19916;-55
2023/08/26 10:58:54;;;;;;;;;;;24.60;61.90;;;;;;5073679;28;19913;-56
2023/08/26 11:01:19;;;;;;;;;;;24.60;62.00;;;;;;5072180;28;19909;-55
2023/08/26 11:03:47;;;;;;;;;;;24.50;61.60;;;;;;5088199;28;20003;-56
2023/08/26 11:06:19;;;;;;;;;;;24.60;61.40;;;;;;5093151;28;20272;-56
2023/08/26 11:08:51;;;;;;;;;;;24.60;61.50;;;;;;5100381;28;20246;-56
2023/08/26 11:11:17;;;;;;;;;;;24.60;61.10;;;;;;5093700;28;19923;-56
2023/08/26 11:13:42;;;;;;;;;;;24.60;61.10;;;;;;5090044;28;19912;-56
2023/08/26 11:16:08;;;;;;;;;;;24.60;61.10;;;;;;5092571;28;19913;-56
2023/08/26 11:18:34;;;;;;;;;;;24.50;61.10;;;;;;5090042;28;20328;-56
2023/08/26 11:21:03;;;;;;;;;;;24.60;61.00;;;;;;5093414;28;19912;-56
2023/08/26 11:23:29;;;;;;;;;;;24.60;60.90;;;;;;5093553;28;20299;-56
2023/08/26 11:25:54;;;;;;;;;;;24.60;60.20;;;;;;5079593;28;19909;-56
2023/08/26 11:28:20;;;;;;;;;;;24.50;60.00;;;;;;5086216;28;19920;-56
2023/08/26 11:30:49;;;;;;;;;;;24.60;60.40;;;;;;5093009;28;19939;-56
2023/08/26 11:33:15;;;;;;;;;;;24.50;59.90;;;;;;5089418;28;19922;-56
2023/08/26 11:35:41;;;;;;;;;;;24.60;59.80;;;;;;5093254;28;20390;-56
2023/08/26 11:38:10;;;;;;;;;;;24.60;59.80;;;;;;5092900;28;20015;-55
2023/08/26 11:40:35;;;;;;;;;;;24.60;59.80;;;;;;5072883;28;20356;-56
2023/08/26 11:43:13;;;;;;;;;;;24.60;59.60;;;;;;5073002;28;19955;-56
2023/08/26 11:45:39;;;;;;;;;;;24.60;59.60;;;;;;5072983;28;19909;-56
2023/08/26 11:48:05;;;;;;;;;;;24.60;59.60;;;;;;5082092;28;20606;-56
2023/08/26 11:50:31;;;;;;;;;;;24.60;59.40;;;;;;5092910;28;19936;-55
2023/08/26 11:52:57;;;;;;;;;;;24.60;59.20;;;;;;5093294;28;19912;-56
2023/08/26 11:55:22;;;;;;;;;;;24.60;58.90;;;;;;5083850;28;19954;-56
2023/08/26 11:57:50;;;;;;;;;;;24.60;58.80;;;;;;5080211;28;19912;-56
2023/08/26 12:00:18;;;;;;;;;;;24.60;58.50;;;;;;5093072;28;19908;-55
2023/08/26 12:02:47;;;;;;;;;;;24.60;58.60;;;;;;5089524;28;19919;-56
2023/08/26 12:05:14;;;;;;;;;;;24.60;58.10;;;;;;5092142;28;19916;-56
2023/08/26 12:07:44;;;;;;;;;;;24.70;58.00;;;;;;5088229;28;19919;-56
2023/08/26 12:10:12;;;;;;;;;;;24.60;57.70;;;;;;5090559;28;19917;-56
2023/08/26 12:12:38;;;;;;;;;;;24.60;57.90;;;;;;5092970;28;20003;-56
2023/08/26 12:15:11;;;;;;;;;;;24.70;57.70;;;;;;5092787;28;20381;-56
2023/08/26 12:17:46;;;;;;;;;;;24.70;57.80;;;;;;5090574;28;19955;-56
2023/08/26 12:20:24;;;;;;;;;;;24.60;57.50;;;;;;5091539;28;19912;-56
2023/08/26 12:22:52;;;;;;;;;;;24.60;57.40;;;;;;5092731;28;19908;-56
2023/08/26 12:25:18;;;;;;;;;;;24.60;57.40;;;;;;5084171;28;20290;-56
2023/08/26 12:27:44;;;;;;;;;;;24.60;57.40;;;;;;5077663;28;19912;-56
2023/08/26 12:30:09;;;;;;;;;;;24.60;57.60;;;;;;5092664;28;19919;-56
2023/08/26 12:32:35;;;;;;;;;;;24.60;57.50;;;;;;5090346;28;19913;-56
2023/08/26 12:35:00;;;;;;;;;;;24.60;57.40;;;;;;5090293;28;20009;-56
2023/08/26 12:37:26;;;;;;;;;;;24.60;57.20;;;;;;5092667;28;20296;-56
2023/08/26 12:39:51;;;;;;;;;;;24.60;57.20;;;;;;5090195;28;19908;-56
2023/08/26 12:42:17;;;;;;;;;;;24.70;57.70;;;;;;5092662;28;19965;-56
2023/08/26 12:44:43;;;;;;;;;;;24.60;57.40;;;;;;5090979;28;19916;-55
2023/08/26 12:47:08;;;;;;;;;;;24.60;57.40;;;;;;5090157;28;19912;-56
2023/08/26 12:49:34;;;;;;;;;;;24.60;57.20;;;;;;5091169;28;19999;-56
2023/08/26 12:51:59;;;;;;;;;;;24.60;57.20;;;;;;5089185;28;19923;-56
2023/08/26 12:54:25;;;;;;;;;;;24.60;57.40;;;;;;5091220;28;19908;-56
2023/08/26 12:56:50;;;;;;;;;;;24.50;57.30;;;;;;5077138;28;19912;-56
2023/08/26 12:59:16;;;;;;;;;;;24.60;57.40;;;;;;5096083;28;19915;-57
2023/08/26 13:01:41;;;;;;;;;;;24.60;57.50;;;;;;5096085;28;20288;-56
2023/08/26 13:04:06;;;;;;;;;;;24.60;57.70;;;;;;5087765;28;19916;-56
2023/08/26 13:06:32;;;;;;;;;;;24.60;57.90;;;;;;5094226;28;19913;-56
2023/08/26 13:08:57;;;;;;;;;;;24.60;58.00;;;;;;5095958;28;19999;-56
2023/08/26 13:11:23;;;;;;;;;;;24.60;58.10;;;;;;5095875;28;19913;-55
2023/08/26 13:13:48;;;;;;;;;;;24.60;58.10;;;;;;5085472;28;20014;-56
2023/08/26 13:16:14;;;;;;;;;;;24.60;58.30;;;;;;5075614;28;19931;-56
2023/08/26 13:18:43;;;;;;;;;;;24.60;58.30;;;;;;5083781;28;19912;-55
2023/08/26 13:21:09;;;;;;;;;;;24.70;58.50;;;;;;5095782;28;19915;-55
2023/08/26 13:23:34;;;;;;;;;;;24.70;58.60;;;;;;5095808;28;19908;-56
2023/08/26 13:25:59;;;;;;;;;;;24.70;58.80;;;;;;5087690;28;19965;-56
2023/08/26 13:28:25;;;;;;;;;;;24.70;58.60;;;;;;5095590;28;19909;-55
2023/08/26 13:30:51;;;;;;;;;;;24.70;59.40;;;;;;5095459;28;19916;-56
2023/08/26 13:33:16;;;;;;;;;;;24.80;59.00;;;;;;5088641;28;19913;-56
2023/08/26 13:35:42;;;;;;;;;;;24.80;58.80;;;;;;5075394;28;19951;-56
2023/08/26 13:38:07;;;;;;;;;;;24.80;58.80;;;;;;5075173;28;19919;-56
2023/08/26 13:40:33;;;;;;;;;;;24.80;58.80;;;;;;5074091;28;19912;-56
2023/08/26 13:42:58;;;;;;;;;;;24.90;59.00;;;;;;5094643;28;19958;-55
2023/08/26 13:45:24;;;;;;;;;;;24.80;59.00;;;;;;5095408;28;19915;-56
2023/08/26 13:47:49;;;;;;;;;;;24.80;59.00;;;;;;5095258;28;19908;-56
2023/08/26 13:50:14;;;;;;;;;;;24.90;59.00;;;;;;5093155;28;19920;-56
2023/08/26 13:52:40;;;;;;;;;;;24.80;59.00;;;;;;5091895;28;20396;-56
2023/08/26 13:55:06;;;;;;;;;;;24.90;59.00;;;;;;5088170;28;19909;-56
2023/08/26 13:57:31;;;;;;;;;;;24.90;59.10;;;;;;5074699;28;19948;-56
2023/08/26 13:59:56;;;;;;;;;;;24.90;59.10;;;;;;5079398;28;20294;-56
2023/08/26 14:02:22;;;;;;;;;;;24.90;58.90;;;;;;5090529;28;20040;-56
2023/08/26 14:04:48;;;;;;;;;;;24.90;59.00;;;;;;5081170;28;19920;-56
2023/08/26 14:07:13;;;;;;;;;;;24.90;59.00;;;;;;5078908;28;19916;-56
2023/08/26 14:09:39;;;;;;;;;;;24.80;59.00;;;;;;5094807;28;19919;-55